Time;durP1;ratioP1;P1;durP2;ratioP2;P2;SDS_P1;SDS_P2;PMS_P1;PMS_P2;Temp;Humidity;BMP_temperature;BMP_pressure;BME280_temperature;BME280_humidity;BME280_pressure;Samples;Min_cycle;Max_cycle;Signal;HPM_P1;HPM_P2
2023/08/11 00:01:13;;;;;;;17.33;6.57;;;;;;;16.45;100.00;101840.50;5033900;28;20033;-82
2023/08/11 00:03:38;;;;;;;15.95;6.13;;;;;;;16.38;100.00;101835.59;5008000;28;20033;-82
2023/08/11 00:06:07;;;;;;;17.10;6.70;;;;;;;16.36;100.00;101839.41;5031526;28;20028;-82
2023/08/11 00:08:32;;;;;;;16.45;6.68;;;;;;;16.32;100.00;101846.09;5031797;28;20022;-82
2023/08/11 00:10:59;;;;;;;17.77;6.20;;;;;;;16.27;100.00;101840.16;5033560;28;20392;-82
2023/08/11 00:13:24;;;;;;;17.35;7.07;;;;;;;16.23;100.00;101839.56;5031651;28;20116;-82
2023/08/11 00:15:50;;;;;;;17.40;6.60;;;;;;;16.20;100.00;101837.09;5035025;28;20538;-82
2023/08/11 00:18:16;;;;;;;15.85;6.80;;;;;;;16.17;100.00;101842.78;5035172;28;20119;-82
2023/08/11 00:20:41;;;;;;;15.88;6.15;;;;;;;16.13;100.00;101841.28;5033920;28;20065;-82
2023/08/11 00:23:07;;;;;;;17.55;6.20;;;;;;;16.09;100.00;101840.66;5030761;28;20120;-80
2023/08/11 00:25:32;;;;;;;15.05;6.25;;;;;;;16.06;100.00;101838.19;5040826;28;20029;-79
2023/08/11 00:27:58;;;;;;;17.80;7.18;;;;;;;16.02;100.00;101840.31;5043702;28;20060;-79
2023/08/11 00:30:24;;;;;;;16.63;6.65;;;;;;;15.99;100.00;101839.69;5041551;28;20037;-79
2023/08/11 00:32:50;;;;;;;18.13;6.70;;;;;;;15.96;100.00;101840.81;5041526;28;20109;-79
2023/08/11 00:35:15;;;;;;;16.90;6.88;;;;;;;15.92;100.00;101844.75;5042177;28;20041;-79
2023/08/11 00:37:41;;;;;;;16.35;6.50;;;;;;;15.89;100.00;101845.00;5042420;28;20453;-78
2023/08/11 00:40:08;;;;;;;19.65;6.78;;;;;;;15.87;100.00;101846.97;5042978;28;20396;-79
2023/08/11 00:42:33;;;;;;;18.77;7.00;;;;;;;15.85;100.00;101840.81;5041544;28;20040;-79
2023/08/11 00:44:59;;;;;;;18.67;6.35;;;;;;;15.84;100.00;101837.25;5037546;28;20457;-79
2023/08/11 00:47:26;;;;;;;17.52;6.85;;;;;;;15.82;100.00;101832.91;5041478;28;20512;-79
2023/08/11 00:49:51;;;;;;;18.48;7.15;;;;;;;15.77;100.00;101825.13;5042559;28;20064;-78
2023/08/11 00:52:18;;;;;;;16.48;7.20;;;;;;;15.74;100.00;101825.38;5041485;28;20036;-78
2023/08/11 00:54:43;;;;;;;16.92;6.75;;;;;;;15.71;100.00;101821.06;5039902;28;20056;-78
2023/08/11 00:57:09;;;;;;;17.73;6.68;;;;;;;15.68;100.00;101810.47;5040915;28;20025;-79
2023/08/11 00:59:35;;;;;;;18.20;7.38;;;;;;;15.67;100.00;101807.88;5042834;28;20055;-78
2023/08/11 01:02:00;;;;;;;16.23;6.90;;;;;;;15.64;100.00;101810.84;5042887;28;20030;-79
2023/08/11 01:04:25;;;;;;;17.15;7.22;;;;;;;15.61;100.00;101808.34;5039229;28;20031;-78
2023/08/11 01:07:03;;;;;;;16.88;7.05;;;;;;;15.61;100.00;101805.63;5039659;28;20056;-78
2023/08/11 01:09:35;;;;;;;16.52;6.85;;;;;;;15.58;100.00;101804.06;5042491;28;20044;-79
2023/08/11 01:12:21;;;;;;;18.33;7.97;;;;;;;15.54;100.00;101802.56;5042325;28;20040;-79
2023/08/11 01:15:45;;;;;;;17.92;7.43;;;;;;;15.53;100.00;101801.72;5038782;28;20029;-78
2023/08/11 01:18:12;;;;;;;18.83;8.60;;;;;;;15.50;100.00;101799.22;4981236;28;20604;-78
2023/08/11 01:20:38;;;;;;;19.80;8.40;;;;;;;15.49;100.00;101808.34;4989740;28;20034;-79
2023/08/11 01:23:06;;;;;;;19.90;8.63;;;;;;;15.48;100.00;101792.22;4981661;28;20030;-79
2023/08/11 01:25:33;;;;;;;23.13;9.30;;;;;;;15.46;100.00;101800.47;4981115;28;20054;-78
2023/08/11 01:28:00;;;;;;;19.98;8.93;;;;;;;15.44;100.00;101793.44;4980175;28;20061;-78
2023/08/11 01:30:26;;;;;;;20.17;8.88;;;;;;;15.43;100.00;101789.00;4983330;28;20077;-79
2023/08/11 01:32:52;;;;;;;19.75;8.70;;;;;;;15.41;100.00;101791.84;4964796;28;20047;-79
2023/08/11 01:35:18;;;;;;;21.20;9.85;;;;;;;15.40;100.00;101794.66;4981287;28;20376;-79
2023/08/11 01:37:44;;;;;;;19.52;9.02;;;;;;;15.38;100.00;101800.19;4981865;28;20041;-78
2023/08/11 01:40:14;;;;;;;22.63;9.20;;;;;;;15.34;100.00;101799.59;4984001;28;20074;-79
2023/08/11 01:42:41;;;;;;;20.20;9.05;;;;;;;15.32;100.00;101806.97;4981772;28;20031;-78
2023/08/11 01:45:11;;;;;;;21.83;9.68;;;;;;;15.32;100.00;101798.00;4980913;28;20065;-79
2023/08/11 01:47:38;;;;;;;19.83;9.15;;;;;;;15.31;100.00;101802.53;4966814;28;20031;-78
2023/08/11 01:50:06;;;;;;;19.75;8.80;;;;;;;15.28;100.00;101804.63;4966147;28;20035;-79
2023/08/11 01:52:37;;;;;;;22.50;9.35;;;;;;;15.26;100.00;101801.19;5013885;28;20052;-78
2023/08/11 01:55:03;;;;;;;19.35;8.73;;;;;;;15.23;100.00;101799.56;5041898;28;20029;-79
2023/08/11 01:57:29;;;;;;;20.05;9.10;;;;;;;15.23;100.00;101790.56;5042064;28;20021;-79
2023/08/11 01:59:55;;;;;;;21.60;9.48;;;;;;;15.22;100.00;101787.00;5042673;28;20036;-77
2023/08/11 02:02:20;;;;;;;18.55;8.75;;;;;;;15.19;100.00;101787.25;5040820;28;20089;-79
2023/08/11 02:04:47;;;;;;;19.42;8.80;;;;;;;15.19;100.00;101787.25;5029303;28;20014;-76
2023/08/11 02:07:12;;;;;;;18.88;9.48;;;;;;;15.16;100.00;101777.50;5032514;28;20045;-76
2023/08/11 02:09:37;;;;;;;21.23;9.38;;;;;;;15.13;100.00;101779.59;5030988;28;20094;-76
2023/08/11 02:12:03;;;;;;;19.45;9.13;;;;;;;15.10;100.00;101782.56;5028447;28;20487;-76
2023/08/11 02:14:28;;;;;;;20.60;8.75;;;;;;;15.08;100.00;101784.50;5032759;28;20037;-76
2023/08/11 02:16:54;;;;;;;18.98;8.43;;;;;;;15.04;100.00;101773.06;5032764;28;20025;-76
2023/08/11 02:19:19;;;;;;;19.45;8.20;;;;;;;15.03;100.00;101772.19;5031815;28;20592;-76
2023/08/11 02:21:44;;;;;;;19.77;8.98;;;;;;;15.02;100.00;101767.75;5030600;28;20025;-76
2023/08/11 02:24:17;;;;;;;19.13;9.27;;;;;;;15.03;100.00;101769.47;5128533;27;20367;-79
2023/08/11 02:26:42;;;;;;;17.75;8.55;;;;;;;15.01;100.00;101774.16;5106381;28;20026;-79
2023/08/11 02:29:08;;;;;;;19.35;8.40;;;;;;;15.00;100.00;101772.41;5128524;27;20043;-79
2023/08/11 02:31:33;;;;;;;19.85;8.65;;;;;;;14.99;100.00;101773.41;5126203;27;20019;-79
2023/08/11 02:34:00;;;;;;;18.25;8.77;;;;;;;14.97;100.00;101782.63;5124919;27;20463;-79
2023/08/11 02:36:25;;;;;;;24.35;10.70;;;;;;;14.93;100.00;101782.00;5110013;28;20127;-79
2023/08/11 02:38:51;;;;;;;25.40;9.27;;;;;;;14.91;100.00;101777.69;5109834;28;20115;-79
2023/08/11 02:41:16;;;;;;;21.45;9.93;;;;;;;14.89;100.00;101785.94;5110046;28;20398;-79
2023/08/11 02:43:42;;;;;;;21.58;9.90;;;;;;;14.84;100.00;101788.13;5126157;28;20028;-79
2023/08/11 02:46:07;;;;;;;22.42;10.55;;;;;;;14.84;100.00;101782.72;5116909;28;20027;-79
2023/08/11 02:48:36;;;;;;;21.10;11.02;;;;;;;14.85;100.00;101789.84;5128072;27;20051;-79
2023/08/11 02:51:07;;;;;;;24.30;11.27;;;;;;;14.80;100.00;101782.09;5119895;27;20526;-79
2023/08/11 02:53:33;;;;;;;20.50;10.50;;;;;;;14.78;100.00;101788.59;5124199;27;20015;-79
2023/08/11 02:56:01;;;;;;;20.85;11.13;;;;;;;14.77;100.00;101786.84;5127868;27;20042;-79
2023/08/11 02:58:27;;;;;;;20.77;10.40;;;;;;;14.74;100.00;101789.81;5109231;28;20023;-79
2023/08/11 03:00:53;;;;;;;21.17;11.10;;;;;;;14.73;100.00;101779.94;5126651;28;20030;-79
2023/08/11 03:03:18;;;;;;;23.10;11.20;;;;;;;14.74;100.00;101781.69;5108225;28;20024;-79
2023/08/11 03:05:44;;;;;;;21.73;11.13;;;;;;;14.74;100.00;101773.56;5107496;28;20403;-79
2023/08/11 03:08:09;;;;;;;22.10;11.60;;;;;;;14.76;100.00;101775.19;5109431;27;20060;-79
2023/08/11 03:10:35;;;;;;;23.42;11.32;;;;;;;14.75;100.00;101772.59;5127834;28;20090;-79
2023/08/11 03:13:00;;;;;;;22.45;10.70;;;;;;;14.73;100.00;101769.13;5098775;28;20016;-79
2023/08/11 03:15:25;;;;;;;21.27;11.02;;;;;;;14.72;100.00;101767.44;5122113;27;20148;-79
2023/08/11 03:17:52;;;;;;;20.60;10.80;;;;;;;14.71;100.00;101768.41;5109457;28;20030;-79
2023/08/11 03:20:18;;;;;;;22.88;10.77;;;;;;;14.70;100.00;101766.66;5127841;28;20077;-79
2023/08/11 03:22:45;;;;;;;24.70;12.00;;;;;;;14.69;100.00;101779.34;5098456;27;20172;-79
2023/08/11 03:25:14;;;;;;;24.08;11.77;;;;;;;14.66;100.00;101774.16;5109728;27;20035;-79
2023/08/11 03:27:41;;;;;;;21.05;12.00;;;;;;;14.65;100.00;101762.44;5109262;28;20122;-79
2023/08/11 03:30:08;;;;;;;21.20;11.88;;;;;;;14.63;100.00;101767.13;5109148;28;20402;-79
2023/08/11 03:32:33;;;;;;;24.35;12.45;;;;;;;14.62;100.00;101773.50;5107344;27;20089;-79
2023/08/11 03:34:59;;;;;;;23.25;12.73;;;;;;;14.60;100.00;101769.19;5090141;28;20035;-79
2023/08/11 03:37:24;;;;;;;24.95;12.98;;;;;;;14.60;100.00;101770.03;5110943;28;20023;-79
2023/08/11 03:39:50;;;;;;;22.92;12.40;;;;;;;14.60;100.00;101766.47;5113790;28;20032;-79
2023/08/11 03:42:15;;;;;;;23.70;12.75;;;;;;;14.59;100.00;101762.91;5113633;28;20036;-79
2023/08/11 03:44:41;;;;;;;25.08;13.25;;;;;;;14.56;100.00;101755.00;5113448;28;20032;-79
2023/08/11 03:47:06;;;;;;;22.95;12.68;;;;;;;14.57;100.00;101764.88;5111379;28;20031;-78
2023/08/11 03:49:32;;;;;;;24.90;12.93;;;;;;;14.54;100.00;101759.69;5113084;28;20468;-79
2023/08/11 03:51:57;;;;;;;24.88;13.73;;;;;;;14.55;100.00;101764.09;5094733;28;20024;-79
2023/08/11 03:54:23;;;;;;;24.30;13.52;;;;;;;14.54;100.00;101759.69;5109835;28;20031;-79
2023/08/11 03:56:48;;;;;;;25.55;14.23;;;;;;;14.55;100.00;101761.41;5091236;28;20516;-79
2023/08/11 03:59:13;;;;;;;24.50;12.38;;;;;;;14.55;100.00;101765.94;5095088;28;20429;-79
2023/08/11 04:01:39;;;;;;;26.10;15.23;;;;;;;14.53;100.00;101757.97;5113469;28;20376;-79
2023/08/11 04:04:04;;;;;;;25.27;15.38;;;;;;;14.55;100.00;101760.53;5086625;28;20391;-79
2023/08/11 04:06:32;;;;;;;25.23;13.98;;;;;;;14.55;100.00;101755.13;5113348;28;20745;-78
2023/08/11 04:08:59;;;;;;;25.63;13.35;;;;;;;14.54;100.00;101762.41;5095318;28;20023;-79
2023/08/11 04:11:25;;;;;;;22.52;13.40;;;;;;;14.54;100.00;101759.69;5094788;28;20130;-79
2023/08/11 04:13:50;;;;;;;27.05;13.63;;;;;;;14.51;100.00;101766.19;5105762;28;20107;-79
2023/08/11 04:16:16;;;;;;;25.83;15.45;;;;;;;14.51;100.00;101759.94;5114256;28;20077;-78
2023/08/11 04:18:41;;;;;;;24.98;14.68;;;;;;;14.50;100.00;101761.75;5136532;22;20051;-76
2023/08/11 04:21:06;;;;;;;23.13;13.93;;;;;;;14.50;100.00;101763.59;5116068;28;20119;-76
2023/08/11 04:23:32;;;;;;;24.10;14.32;;;;;;;14.50;100.00;101760.91;5091980;28;20172;-78
2023/08/11 04:25:57;;;;;;;26.30;15.60;;;;;;;14.51;100.00;101760.78;5103365;28;20028;-79
2023/08/11 04:28:22;;;;;;;23.50;13.80;;;;;;;14.51;100.00;101760.78;5114151;28;20032;-79
2023/08/11 04:30:48;;;;;;;24.98;14.68;;;;;;;14.50;100.00;101759.03;5096082;28;20372;-79
2023/08/11 04:33:13;;;;;;;26.02;14.45;;;;;;;14.52;100.00;101761.63;5092226;28;20475;-79
2023/08/11 04:35:38;;;;;;;27.00;15.70;;;;;;;14.52;100.00;101767.03;5102179;28;20031;-79
2023/08/11 04:38:04;;;;;;;26.65;14.80;;;;;;;14.53;100.00;101762.50;5105146;28;20030;-79
2023/08/11 04:40:29;;;;;;;26.02;14.93;;;;;;;14.54;100.00;101767.81;5105464;28;20031;-79
2023/08/11 04:42:56;;;;;;;26.58;15.23;;;;;;;14.56;100.00;101757.72;5100261;28;20039;-79
2023/08/11 04:45:21;;;;;;;28.58;14.02;;;;;;;14.56;100.00;101756.88;5109509;28;20050;-79
2023/08/11 04:47:47;;;;;;;26.15;14.32;;;;;;;14.59;100.00;101752.06;5089017;28;20024;-77
2023/08/11 04:50:12;;;;;;;26.55;14.63;;;;;;;14.64;100.00;101755.34;5109389;28;20047;-77
2023/08/11 04:52:38;;;;;;;28.10;15.02;;;;;;;14.65;100.00;101748.94;5090214;28;20032;-77
2023/08/11 04:55:05;;;;;;;26.45;14.27;;;;;;;14.66;100.00;101742.53;5089484;28;20020;-77
2023/08/11 04:57:30;;;;;;;25.98;16.17;;;;;;;14.70;100.00;101742.31;5109558;28;20031;-77
2023/08/11 04:59:56;;;;;;;27.15;15.18;;;;;;;14.73;100.00;101737.53;5101835;28;20020;-77
2023/08/11 05:02:21;;;;;;;26.45;16.05;;;;;;;14.77;100.00;101738.16;5110928;28;20034;-77
2023/08/11 05:04:46;;;;;;;31.70;15.65;;;;;;;14.82;100.00;101735.97;5111652;28;20031;-77
2023/08/11 05:07:12;;;;;;;28.17;16.17;;;;;;;14.84;100.00;101728.59;5112098;27;20425;-77
2023/08/11 05:09:38;;;;;;;24.88;14.95;;;;;;;14.87;100.00;101731.03;5100339;27;20049;-77
2023/08/11 05:12:04;;;;;;;31.27;15.20;;;;;;;14.93;100.00;101729.72;5102809;27;20052;-77
2023/08/11 05:14:30;;;;;;;27.13;15.70;;;;;;;14.96;100.00;101734.88;5087206;27;20073;-77
2023/08/11 05:16:55;;;;;;;25.23;15.23;;;;;;;15.02;100.00;101740.69;5107311;27;20055;-77
2023/08/11 05:19:20;;;;;;;26.02;15.13;;;;;;;15.07;100.00;101728.66;5104127;28;20071;-77
2023/08/11 05:21:46;;;;;;;29.02;14.95;;;;;;;15.10;100.00;101737.38;5087434;28;20024;-77
2023/08/11 05:24:11;;;;;;;25.85;14.10;;;;;;;15.15;100.00;101737.00;5091658;28;20554;-77
2023/08/11 05:26:37;;;;;;;28.52;14.48;;;;;;;15.18;100.00;101726.81;5110319;27;20028;-77
2023/08/11 05:29:03;;;;;;;23.88;13.93;;;;;;;15.23;100.00;101731.88;5113752;27;20022;-77
2023/08/11 05:31:28;;;;;;;27.13;13.68;;;;;;;15.28;100.00;101729.63;5118383;27;20023;-76
2023/08/11 05:33:55;;;;;;;26.98;13.15;;;;;;;15.33;100.00;101730.16;5105615;27;20100;-77
2023/08/11 05:36:20;;;;;;;26.10;13.60;;;;;;;15.36;100.00;101732.63;5090500;28;20060;-77
2023/08/11 05:38:45;;;;;;;25.05;13.15;;;;;;;15.41;100.00;101721.41;5106418;27;20062;-77
2023/08/11 05:41:11;;;;;;;26.08;14.15;;;;;;;15.46;100.00;101729.16;5111657;28;20024;-77
2023/08/11 05:43:36;;;;;;;23.27;12.55;;;;;;;15.52;100.00;101726.84;5092891;28;20028;-77
2023/08/11 05:46:03;;;;;;;26.30;13.52;;;;;;;15.56;100.00;101735.56;5083984;28;20043;-77
2023/08/11 05:48:28;;;;;;;24.85;13.00;;;;;;;15.59;100.00;101724.47;5093757;28;20024;-77
2023/08/11 05:50:54;;;;;;;23.65;12.55;;;;;;;15.64;100.00;101733.09;5117978;27;20052;-77
2023/08/11 05:53:19;;;;;;;25.35;12.57;;;;;;;15.68;100.00;101723.75;5100162;28;20031;-77
2023/08/11 05:55:44;;;;;;;23.08;12.75;;;;;;;15.72;100.00;101724.34;5095062;28;20031;-77
2023/08/11 05:58:10;;;;;;;28.20;12.40;;;;;;;15.76;100.00;101728.53;5095911;28;20387;-77
2023/08/11 06:00:35;;;;;;;27.48;12.13;;;;;;;15.83;100.00;101732.50;5093544;28;20028;-77
2023/08/11 06:03:00;;;;;;;23.90;12.52;;;;;;;15.86;100.00;101728.69;5112474;27;20026;-77
2023/08/11 06:05:26;;;;;;;22.48;11.57;;;;;;;15.91;100.00;101723.72;5119917;27;20031;-77
2023/08/11 06:07:52;;;;;;;25.58;12.40;;;;;;;15.95;100.00;101729.78;5092505;28;20034;-77
2023/08/11 06:10:17;;;;;;;24.90;12.05;;;;;;;16.00;100.00;101727.53;5095376;28;20382;-77
2023/08/11 06:12:42;;;;;;;23.77;11.27;;;;;;;16.04;100.00;101727.16;5120082;28;20055;-77
2023/08/11 06:15:11;;;;;;;22.38;11.15;;;;;;;16.08;100.00;101731.34;5102840;28;20040;-77
2023/08/11 06:17:36;;;;;;;21.08;9.88;;;;;;;16.13;100.00;101719.25;5097640;27;20046;-77
2023/08/11 06:20:03;;;;;;;22.20;10.85;;;;;;;16.19;100.00;101726.88;5094101;28;20122;-77
2023/08/11 06:22:29;;;;;;;25.50;10.60;;;;;;;16.24;100.00;101732.78;5084832;28;20368;-77
2023/08/11 06:24:54;;;;;;;22.25;8.93;;;;;;;16.27;100.00;101727.09;5091247;28;20035;-77
2023/08/11 06:27:19;;;;;;;24.70;9.77;;;;;;;16.33;100.00;101733.88;5099036;28;21390;-77
2023/08/11 06:29:45;;;;;;;23.63;9.85;;;;;;;16.37;100.00;101728.06;5116811;28;20410;-77
2023/08/11 06:32:10;;;;;;;23.17;9.70;;;;;;;16.44;100.00;101733.81;5112050;28;20425;-75
2023/08/11 06:34:35;;;;;;;21.27;9.05;;;;;;;16.49;100.00;101733.44;5110439;28;20098;-76
2023/08/11 06:37:01;;;;;;;17.95;6.50;;;;;;;16.47;100.00;101738.13;5112858;28;20059;-74
2023/08/11 06:39:26;;;;;;;20.88;8.63;;;;;;;16.56;100.00;101745.47;5116820;28;20030;-76
2023/08/11 06:41:51;;;;;;;20.58;9.60;;;;;;;16.60;100.00;101736.97;5095001;28;20019;-75
2023/08/11 06:44:17;;;;;;;17.90;6.88;;;;;;;16.59;100.00;101747.97;5118439;22;20415;-80
2023/08/11 06:46:42;;;;;;;22.00;8.57;;;;;;;16.66;100.00;101746.44;5094675;28;20028;-80
2023/08/11 06:49:07;;;;;;;18.00;7.35;;;;;;;16.65;100.00;101747.44;5073086;28;20039;-80
2023/08/11 06:51:33;;;;;;;20.50;7.47;;;;;;;16.68;100.00;101749.03;5075563;28;20027;-75
2023/08/11 06:53:58;;;;;;;20.88;9.27;;;;;;;16.74;100.00;101743.06;5087993;28;20024;-75
2023/08/11 06:56:24;;;;;;;25.45;10.15;;;;;;;16.82;100.00;101751.41;5093434;28;20039;-81
2023/08/11 06:58:51;;;;;;;20.23;8.20;;;;;;;16.84;100.00;101752.16;5095123;28;20031;-81
2023/08/11 07:01:18;;;;;;;16.90;7.05;;;;;;;16.82;100.00;101756.84;5105924;28;20025;-81
2023/08/11 07:03:44;;;;;;;23.15;7.45;;;;;;;16.87;100.00;101753.75;5094198;28;20020;-80
2023/08/11 07:06:09;;;;;;;16.98;6.38;;;;;;;16.91;100.00;101755.22;5097109;28;20043;-81
2023/08/11 07:08:35;;;;;;;17.42;6.80;;;;;;;16.94;99.84;101754.94;5113335;28;20024;-80
2023/08/11 07:11:00;;;;;;;19.63;7.80;;;;;;;16.99;100.00;101758.16;5088441;28;20131;-81
2023/08/11 07:13:26;;;;;;;18.33;6.88;;;;;;;17.00;99.88;101759.88;5085995;28;20031;-80
2023/08/11 07:15:54;;;;;;;20.70;6.22;;;;;;;17.02;99.33;101763.31;5083747;28;20024;-81
2023/08/11 07:18:20;;;;;;;18.73;6.32;;;;;;;17.08;98.97;101762.78;5111890;28;20016;-81
2023/08/11 07:20:45;;;;;;;18.33;6.40;;;;;;;17.11;98.69;101753.50;5090835;28;20042;-81
2023/08/11 07:23:10;;;;;;;18.52;6.70;;;;;;;17.15;97.98;101760.41;5091050;28;20450;-81
2023/08/11 07:25:36;;;;;;;18.27;6.68;;;;;;;17.19;98.54;101758.25;5092420;28;20024;-81
2023/08/11 07:28:02;;;;;;;15.50;6.05;;;;;;;17.23;97.96;101759.72;5101996;28;20035;-80
2023/08/11 07:30:31;;;;;;;12.77;5.13;;;;;;;17.29;98.71;101756.47;5085736;28;20130;-82
2023/08/11 07:32:57;;;;;;;15.75;6.05;;;;;;;17.40;100.00;101760.97;5087886;28;20043;-81
2023/08/11 07:35:23;;;;;;;16.33;6.22;;;;;;;17.47;100.00;101756.72;5094473;28;20016;-81
2023/08/11 07:37:49;;;;;;;19.83;7.55;;;;;;;17.63;100.00;101758.94;5092483;28;20047;-81
2023/08/11 07:40:15;;;;;;;16.25;5.63;;;;;;;17.61;98.60;101756.38;5110765;28;20021;-81
2023/08/11 07:42:40;;;;;;;17.48;5.95;;;;;;;17.68;99.76;101756.66;5107164;28;20051;-82
2023/08/11 07:45:06;;;;;;;19.02;7.53;;;;;;;17.79;100.00;101755.72;5083528;28;20100;-82
2023/08/11 07:47:32;;;;;;;15.35;6.00;;;;;;;17.78;98.33;101754.00;5071688;28;20028;-78
2023/08/11 07:49:57;;;;;;;15.45;5.63;;;;;;;17.82;98.88;101761.72;5076376;28;20382;-78
2023/08/11 07:52:22;;;;;;;16.15;5.72;;;;;;;17.87;98.55;101763.19;5075006;28;20066;-78
2023/08/11 07:54:48;;;;;;;17.20;5.38;;;;;;;17.89;98.05;101762.06;5094538;28;20177;-78
2023/08/11 07:57:13;;;;;;;16.60;5.85;;;;;;;17.96;99.39;101762.38;5091992;28;20103;-77
2023/08/11 07:59:38;;;;;;;15.60;5.68;;;;;;;18.03;100.00;101763.53;5077550;28;20031;-78
2023/08/11 08:02:04;;;;;;;14.52;5.50;;;;;;;18.06;99.41;101767.84;5073025;28;20051;-79
2023/08/11 08:04:29;;;;;;;17.73;6.15;;;;;;;18.15;99.99;101770.56;5068308;28;20067;-77
2023/08/11 08:06:55;;;;;;;13.55;5.68;;;;;;;18.21;100.00;101758.28;5118007;28;20065;-77
2023/08/11 08:09:20;;;;;;;17.80;6.65;;;;;;;18.41;100.00;101761.03;5090902;28;20012;-80
2023/08/11 08:11:47;;;;;;;18.60;5.53;;;;;;;18.39;100.00;101763.91;5093435;28;20212;-79
2023/08/11 08:14:14;;;;;;;16.27;5.47;;;;;;;18.45;99.62;101768.78;5102649;22;20059;-78
2023/08/11 08:16:44;;;;;;;15.15;5.68;;;;;;;18.60;98.75;101761.03;5092455;28;20016;-78
2023/08/11 08:19:11;;;;;;;16.70;5.35;;;;;;;18.64;98.78;101758.91;5090435;28;20021;-78
2023/08/11 08:21:36;;;;;;;16.25;5.72;;;;;;;18.79;99.87;101759.34;5090915;28;20606;-75
2023/08/11 08:24:04;;;;;;;16.85;5.78;;;;;;;18.82;99.11;101759.03;5091145;28;20036;-76
2023/08/11 08:26:29;;;;;;;17.75;6.53;;;;;;;18.88;97.90;101757.63;5090578;28;20038;-76
2023/08/11 08:28:54;;;;;;;13.85;5.25;;;;;;;18.90;98.17;101763.78;5087932;28;20037;-75
2023/08/11 08:31:20;;;;;;;15.50;5.65;;;;;;;18.97;98.30;101764.94;5090844;28;20046;-75
2023/08/11 08:33:45;;;;;;;15.20;5.63;;;;;;;19.04;98.27;101760.63;5091850;28;20029;-75
2023/08/11 08:36:10;;;;;;;13.43;5.25;;;;;;;19.07;97.59;101768.50;5090598;28;20031;-76
2023/08/11 08:38:36;;;;;;;17.38;5.93;;;;;;;19.15;98.35;101765.03;5091873;28;20028;-75
2023/08/11 08:41:07;;;;;;;11.65;4.22;;;;;;;19.16;97.83;101773.06;5091768;28;20040;-75
2023/08/11 08:43:33;;;;;;;15.18;5.07;;;;;;;19.23;98.14;101770.63;5090970;28;20478;-75
2023/08/11 08:46:02;;;;;;;16.33;5.20;;;;;;;19.25;97.29;101762.28;5089497;28;20095;-75
2023/08/11 08:48:35;;;;;;;16.63;5.82;;;;;;;19.32;98.95;101771.59;5089719;28;20024;-75
2023/08/11 08:51:01;;;;;;;17.98;5.80;;;;;;;19.32;99.32;101768.88;5091405;28;20028;-75
2023/08/11 08:53:27;;;;;;;19.23;5.38;;;;;;;19.33;97.84;101768.72;5090571;28;20021;-75
2023/08/11 08:55:53;;;;;;;15.75;4.72;;;;;;;19.44;99.31;101764.97;5089940;28;20040;-76
2023/08/11 08:58:18;;;;;;;13.35;4.57;;;;;;;19.48;96.81;101762.81;5091178;28;20028;-75
2023/08/11 09:00:45;;;;;;;15.30;5.43;;;;;;;19.56;97.06;101769.25;5090779;28;20059;-75
2023/08/11 09:03:11;;;;;;;16.83;5.72;;;;;;;19.80;96.10;101765.16;5090743;28;20033;-75
2023/08/11 09:05:37;;;;;;;17.08;5.18;;;;;;;19.90;95.79;101760.50;5087553;28;20080;-75
2023/08/11 09:08:03;;;;;;;11.80;4.10;;;;;;;19.88;94.16;101767.09;5089604;28;20033;-76
2023/08/11 09:10:29;;;;;;;13.07;4.38;;;;;;;19.89;94.44;101758.78;5077630;28;20055;-76
2023/08/11 09:12:54;;;;;;;8.90;3.97;;;;;;;19.90;94.30;101765.09;5082048;28;20048;-76
2023/08/11 09:15:21;;;;;;;18.65;5.65;;;;;;;20.00;93.41;101763.19;5080216;28;20032;-76
2023/08/11 09:17:47;;;;;;;12.25;4.28;;;;;;;19.99;92.01;101763.34;5085217;28;20024;-76
2023/08/11 09:20:17;;;;;;;13.48;5.00;;;;;;;20.14;93.95;101758.22;5082677;28;20029;-77
2023/08/11 09:22:43;;;;;;;16.15;5.18;;;;;;;20.20;94.06;101755.72;5083531;28;20116;-76
2023/08/11 09:25:10;;;;;;;13.20;4.47;;;;;;;20.23;96.24;101757.28;5081667;28;20024;-77
2023/08/11 09:27:36;;;;;;;13.95;4.15;;;;;;;20.27;91.42;101746.94;5089283;28;20024;-76
2023/08/11 09:30:03;;;;;;;14.38;4.82;;;;;;;20.48;90.61;101752.94;5089528;28;20055;-76
2023/08/11 09:32:31;;;;;;;11.93;4.40;;;;;;;20.44;90.20;101751.56;5079737;28;20017;-76
2023/08/11 09:34:57;;;;;;;9.65;3.53;;;;;;;20.48;91.15;101752.94;5081353;28;20024;-76
2023/08/11 09:37:22;;;;;;;10.68;4.25;;;;;;;20.51;90.78;101749.03;5081926;28;20097;-76
2023/08/11 09:39:49;;;;;;;13.02;4.10;;;;;;;20.63;89.81;101756.00;5084176;28;20024;-77
2023/08/11 09:42:16;;;;;;;10.23;4.10;;;;;;;20.73;90.45;101748.59;5089053;28;20032;-77
2023/08/11 09:44:42;;;;;;;12.95;4.13;;;;;;;20.71;86.26;101747.03;5082097;28;20025;-77
2023/08/11 09:47:10;;;;;;;13.23;4.50;;;;;;;20.81;88.93;101742.34;5080628;28;20491;-76
2023/08/11 09:49:35;;;;;;;12.30;4.43;;;;;;;20.74;86.90;101746.72;5080307;28;20546;-76
2023/08/11 09:52:04;;;;;;;14.05;4.13;;;;;;;20.86;87.59;101741.88;5088056;28;20059;-77
2023/08/11 09:54:30;;;;;;;11.85;3.95;;;;;;;20.86;90.66;101747.34;5079938;28;20052;-77
2023/08/11 09:56:56;;;;;;;12.73;4.90;;;;;;;21.01;91.02;101743.03;5079345;28;20029;-76
2023/08/11 09:59:22;;;;;;;10.20;3.47;;;;;;;20.84;85.13;101742.03;5062762;28;20037;-77
2023/08/11 10:01:53;;;;;;;10.88;4.40;;;;;;;20.99;88.55;101742.31;5081665;28;20043;-77
2023/08/11 10:04:25;;;;;;;13.10;4.63;;;;;;;21.05;87.70;101746.28;5077079;28;20029;-76
2023/08/11 10:06:56;;;;;;;8.82;3.72;;;;;;;21.03;85.92;101756.53;5076770;28;20025;-76
2023/08/11 10:09:23;;;;;;;10.18;4.15;;;;;;;21.02;84.12;101760.28;5079762;28;20031;-77
2023/08/11 10:11:50;;;;;;;10.15;4.15;;;;;;;21.21;86.02;101754.59;5089269;28;20092;-77
2023/08/11 10:14:18;;;;;;;15.15;5.07;;;;;;;21.37;86.12;101747.53;5083339;28;20055;-77
2023/08/11 10:16:45;;;;;;;10.25;3.83;;;;;;;21.29;85.03;101746.44;5065444;28;20491;-77
2023/08/11 10:19:12;;;;;;;10.68;3.83;;;;;;;21.18;82.53;101748.59;5064665;28;20107;-77
2023/08/11 10:21:38;;;;;;;13.07;4.85;;;;;;;21.36;90.21;101748.53;5073905;28;20077;-77
2023/08/11 10:24:04;;;;;;;10.75;3.70;;;;;;;21.35;85.11;101749.53;5068379;28;20423;-77
2023/08/11 10:26:31;;;;;;;11.40;4.22;;;;;;;21.54;84.67;101743.88;5063810;28;20039;-78
2023/08/11 10:28:57;;;;;;;8.95;3.63;;;;;;;21.48;84.13;101750.00;5063997;28;20097;-78
2023/08/11 10:31:26;;;;;;;8.63;3.53;;;;;;;21.28;82.44;101744.72;5069540;28;20119;-78
2023/08/11 10:33:53;;;;;;;12.67;4.10;;;;;;;21.28;83.72;101742.00;5064198;28;20069;-78
2023/08/11 10:36:27;;;;;;;12.02;4.13;;;;;;;21.27;84.69;101743.03;5062081;28;20048;-78
2023/08/11 10:39:03;;;;;;;10.68;4.00;;;;;;;21.29;85.02;101751.91;5063601;28;20036;-78
2023/08/11 10:41:29;;;;;;;8.98;4.15;;;;;;;21.39;85.48;101735.41;5068276;28;20547;-78
2023/08/11 10:43:56;;;;;;;9.45;4.03;;;;;;;21.52;84.37;101745.91;5062581;28;20037;-77
2023/08/11 10:46:30;;;;;;;12.02;4.25;;;;;;;21.72;84.18;101737.47;5067195;28;20082;-77
2023/08/11 10:49:18;;;;;;;11.32;4.05;;;;;;;21.69;81.19;101738.66;5064183;28;20032;-78
2023/08/11 10:51:43;;;;;;;10.10;4.00;;;;;;;21.88;81.98;101745.75;5071418;28;20033;-77
2023/08/11 10:54:11;;;;;;;10.07;3.95;;;;;;;21.96;81.03;101744.91;5074929;28;20086;-78
2023/08/11 10:56:43;;;;;;;12.23;4.03;;;;;;;21.96;83.73;101742.19;5067051;28;20093;-78
2023/08/11 10:59:13;;;;;;;9.52;3.45;;;;;;;21.93;81.65;101746.13;5064822;28;20028;-78
2023/08/11 11:01:39;;;;;;;;;;;;;;;21.91;83.79;101733.63;5068873;28;20048;-78
2023/08/11 11:04:06;;;;;;;11.27;3.55;;;;;;;21.92;78.48;101736.19;5074058;28;19978;-77
2023/08/11 11:06:33;;;;;;;9.30;3.90;;;;;;;21.96;83.34;101737.56;5068258;28;20032;-78